Agate Beach, Washington
Current Conditions -  °F | °C
As of 1:36 AM on Monday 20 Oct 2014 (Local Time) from KCLM Reporting Station
Overcast Overcast  
Wind Chill: 56°   Ceiling: 900
Heat Index: 56°   Visibility: 10mi
Dew Point: 54°   Wind: 3mph
Humidity: 93%   Direction: 240°WSW
Pressure: 29.67"   Gusts: NA
Location:  48.1359°N, 123.734°W
Report Text: KCLM 200836Z AUTO 24003KT 10SM FEW003 OVC009 13/12 A2967 RMK AO2 RAE32 P0000 T01330122 TSNO $
Loading
Personal Weather Stations






























Interactive Weather Map New forecast layout! Learn more

10-Day Weather Forecast

Advertisements
Track Severe Weather on mobile